WEATHER DATA

YESTERDAY
Time Temp. Dewp. Hum. Wind dir Wind speed Wind gust Bar. 1h Prec. 24h Prec.
00:17 6.6 4.9 89 175 1.1 2.2 1023.7 0.0000 0.0000
00:27 6.6 4.9 89 170 1.1 2.2 1023.8 0.0000 0.0000
00:38 6.5 4.7 88 187 1.1 3.3 1023.9 0.0000 0.0000
00:47 6.5 4.7 88 270 0.8 1.9 1024.2 0.0000 0.0000
00:57 6.4 4.6 88 290 1.1 2.5 1024.4 0.0000 0.0000
01:08 6.4 4.4 87 294 1.4 2.5 1024.6 0.0000 0.0000
01:18 6.3 4.3 87 270 0.8 1.9 1024.4 0.0000 0.0000
01:27 6.3 4.3 87 281 0.8 1.9 1024.5 0.0000 0.0000
01:37 6.3 4.1 86 304 1.4 3.6 1024.7 0.0000 0.0000
01:48 6.3 4 85 270 0.8 1.9 1025 0.0000 0.0000
01:58 6.3 4.1 86 298 1.1 2.5 1025.2 0.0000 0.0000
02:07 6.3 3.8 84 315 1.4 3.3 1025.4 0.0000 0.0000
02:18 6.2 3.7 84 270 0.8 2.2 1025.4 0.0000 0.0000
02:38 6.2 3.7 84 284 0.8 2.2 1025.8 0.0000 0.0000
02:47 6.1 3.6 84 257 0.8 1.9 1025.7 0.0000 0.0000
03:43 6.1 3.9 86 244 0.8 1.9 1025.9 0.0000 0.0000
03:53 6.1 3.9 86 196 1.1 1.9 1025.9 0.0000 0.0000
04:04 6.1 3.9 86 197 1.1 1.9 1026.1 0.0000 0.0000
04:13 6.1 3.9 86 195 1.1 2.5 1026 0.0000 0.0000
04:28 6.1 3.9 86 270 1.1 2.8 1026.1 0.0000 0.0000
04:48 6 3.8 86 202 1.1 2.2 1026 0.0000 0.0000
04:58 6 3.8 86 184 1.4 2.2 1026 0.0000 0.0000
05:08 5.9 3.7 86 304 1.4 3.3 1026.1 0.0000 0.0000
05:19 5.8 3.6 86 254 0.8 1.9 1026.1 0.0000 0.0000
05:29 5.8 3.6 86 330 1.4 2.8 1026.2 0.0000 0.0000
05:38 5.7 3.7 87 331 1.9 4.4 1026.2 0.0000 0.0000
05:49 5.6 3.8 88 284 1.4 3.3 1026.1 0.1010 0.1000
05:59 5.5 3.7 88 278 1.1 2.8 1026.2 0.1010 0.1000
06:09 5.5 3.7 88 306 1.1 2.2 1026.2 0.1010 0.1000
06:18 5.5 3.7 88 294 1.1 3.3 1026.4 0.1010 0.1000
06:29 5.5 3.7 88 298 1.1 3.3 1026.8 0.1010 0.1000
06:39 5.5 3.7 88 305 1.1 3.6 1026.7 0.1010 0.1000
06:49 5.4 3.6 88 280 1.1 2.5 1026.9 0.0000 0.1000
06:59 5.5 3.7 88 241 0.8 2.2 1027.2 0.0000 0.1000
07:09 5.5 3.5 87 243 1.1 2.2 1027.2 0.0000 0.1000
07:19 5.5 3.5 87 278 1.1 2.5 1027.4 0.0000 0.1000
07:29 5.6 3.6 87 270 1.1 3.3 1027.4 0.0000 0.1000
07:39 5.7 3.5 86 282 1.1 2.5 1027.6 0.0000 0.1000
07:49 5.7 3.5 86 306 1.4 3.3 1027.6 0.0000 0.1000
07:59 5.8 3.6 86 270 1.1 2.8 1027.9 0.0000 0.1000
08:10 5.8 3.5 85 257 1.1 2.8 1027.7 0.0000 0.1000
08:29 5.8 3.5 85 270 1.1 2.2 1027.9 0.0000 0.1000
08:39 5.8 3.5 85 270 1.1 2.5 1027.9 0.0000 0.1000
08:50 5.8 3.5 85 238 0.8 2.2 1027.8 0.0000 0.1000
08:59 5.8 3.3 84 270 1.1 2.5 1027.9 0.0000 0.1000
09:09 5.9 3.4 84 233 0.8 2.2 1028.2 0.0000 0.1000
09:20 5.9 3.4 84 232 0.8 1.9 1028.4 0.0000 0.1000
09:30 6 3.7 85 256 1.1 1.9 1028.5 0.0000 0.1000
09:39 6 3.7 85 214 0.8 1.4 1028.6 0.0000 0.1000
09:50 6 3.7 85 215 0.8 1.4 1028.6 0.0000 0.1000
10:00 6.1 3.8 85 211 0.8 1.9 1028.6 0.0000 0.1000
10:10 6.1 3.8 85 217 0.3 1.1 1028.7 0.0000 0.1000
10:19 6.2 3.9 85 270 0.8 1.9 1028.9 0.0000 0.1000
10:30 6.3 4 85 214 0.8 1.9 1028.8 0.0000 0.1000
10:40 6.4 4.1 85 284 1.1 3.9 1028.8 0.0000 0.1000
10:50 6.5 4.2 85 310 1.1 2.8 1029 0.0000 0.1000
11:00 6.7 4.2 84 295 1.1 3.3 1029.2 0.0000 0.1000
11:10 6.8 4.1 83 315 1.1 2.8 1028.9 0.0000 0.1000
11:25 7 4.3 83 295 1.1 3.3 1029.1 0.0000 0.1000
11:35 7.1 4.4 83 237 1.1 3.3 1029 0.0000 0.1000
11:45 7.2 4.3 82 331 1.1 2.2 1028.9 0.0000 0.1000
11:55 7.3 4.4 82 310 1.4 2.8 1028.9 0.0000 0.1000
12:05 7.5 4.6 82 307 1.4 2.8 1029 0.0000 0.1000
12:16 7.6 4.6 81 294 1.1 2.8 1028.9 0.0000 0.1000
12:25 7.6 4.6 81 300 1.4 3.3 1028.7 0.0000 0.1000
12:35 7.6 4.6 81 315 1.1 3.3 1028.8 0.0000 0.1000
12:46 7.6 4.4 80 315 1.4 3.9 1028.7 0.0000 0.1000
12:56 7.6 4.6 81 315 1.4 3.6 1028.7 0.0000 0.1000
13:05 7.4 4.5 82 296 1.1 2.2 1028.5 0.0000 0.1000
13:15 7.4 4.7 83 244 0.8 1.4 1028.6 0.0000 0.1000
13:26 7.4 4.7 83 270 0.8 1.9 1028.4 0.0000 0.1000
13:36 7.4 4.7 83 246 0.8 2.2 1028.3 0.0000 0.1000
13:45 7.5 5 84 186 0.8 1.9 1028.1 0.0000 0.1000
13:56 7.5 5 84 307 1.1 3.3 1027.9 0.0000 0.1000
14:06 7.6 4.9 83 243 0.8 1.9 1027.9 0.0000 0.1000
14:16 7.7 4.8 82 321 1.1 2.2 1027.8 0.0000 0.1000
14:26 7.9 4.8 81 323 1.1 3.6 1027.6 0.0000 0.1000
14:36 7.9 5 82 301 1.1 3.3 1027.7 0.0000 0.1000
14:46 7.9 4.8 81 315 1.1 2.8 1027.6 0.0000 0.1000
14:56 7.9 4.7 80 315 1.4 3.6 1027.7 0.0000 0.1000
15:06 7.8 4.7 81 299 1.1 2.2 1027.9 0.0000 0.1000
15:17 7.8 4.7 81 270 1.1 2.5 1027.8 0.0000 0.1000
15:26 7.7 4.7 81 270 1.1 2.5 1027.8 0.0000 0.1000
15:36 7.7 4.7 81 297 1.1 2.5 1027.9 0.0000 0.1000
15:46 7.7 4.7 81 253 0.8 2.2 1028.1 0.0000 0.1000
15:57 7.7 4.7 81 250 0.8 2.2 1027.9 0.0000 0.1000
16:06 7.6 4.6 81 270 0.8 2.2 1028 0.0000 0.1000
16:16 7.5 4.3 80 231 0.8 1.9 1028.1 0.0000 0.1000
16:27 7.4 4.4 81 270 1.1 2.5 1028.2 0.0000 0.1000
16:37 7.2 4.2 81 290 1.1 2.8 1028.2 0.0000 0.1000
16:46 7.1 4.2 82 270 1.1 2.8 1028.1 0.0000 0.1000
16:57 7 4.1 82 291 1.1 2.8 1028.2 0.0000 0.1000
17:07 6.9 4 82 284 1.1 2.2 1028.2 0.0000 0.1000
17:17 6.8 3.9 82 291 1.1 2.8 1028.3 0.0000 0.1000
17:26 6.7 3.8 82 290 1.1 3.3 1028.3 0.0000 0.1000
17:37 6.6 3.8 82 270 0.8 1.9 1028.5 0.0000 0.1000
17:47 6.5 3.7 82 228 0.8 1.9 1028.6 0.0000 0.1000
17:57 6.5 3.7 82 221 0.8 1.9 1028.6 0.0000 0.1000
18:07 6.4 3.6 82 195 1.1 2.2 1028.4 0.0000 0.1000
18:17 6.2 3.5 83 246 0.8 2.2 1028.6 0.0000 0.1000
18:27 6.1 3.4 83 228 0.8 1.9 1028.6 0.0000 0.1000
18:37 6.1 3.4 83 228 0.8 2.2 1028.6 0.0000 0.1000
18:47 6 3.3 83 188 1.1 1.9 1028.7 0.0000 0.1000
18:57 6 3.3 83 221 0.8 1.4 1028.8 0.0000 0.1000
19:07 6 3.3 83 232 0.8 1.9 1028.9 0.0000 0.1000
19:17 5.9 3.2 83 213 0.8 1.4 1028.9 0.0000 0.1000
19:27 5.9 3.2 83 211 0.8 2.2 1028.9 0.0000 0.1000
19:37 5.9 3.2 83 251 0.8 1.9 1028.8 0.0000 0.1000
19:47 5.9 3.1 82 217 1.1 2.8 1029 0.0000 0.1000
19:58 5.9 3.1 82 216 1.1 2.5 1028.8 0.0000 0.1000
20:08 5.9 2.9 81 283 1.1 2.2 1029 0.0000 0.1000
20:17 5.8 3 82 281 1.1 3.3 1028.9 0.0000 0.1000
20:28 5.8 3 82 280 1.1 2.8 1029 0.0000 0.1000
20:38 5.8 3 82 290 1.1 2.5 1028.9 0.0000 0.1000
20:48 5.8 3.1 83 270 1.1 2.5 1028.9 0.0000 0.1000
20:57 5.8 3.1 83 270 1.1 3.3 1029 0.0000 0.1000
21:08 5.9 3.2 83 270 1.1 3.3 1028.8 0.0000 0.1000
21:18 5.9 3.2 83 308 1.4 3.6 1028.8 0.0000 0.1000
21:28 5.9 3.4 84 318 1.1 2.8 1028.8 0.0000 0.1000
21:38 5.9 3.4 84 270 1.1 2.8 1028.6 0.0000 0.1000
21:49 5.9 3.4 84 285 1.1 2.5 1028.6 0.0000 0.1000
21:54 5.9 3.4 84 270 1.1 2.8 1028.5 0.0000 0.1000
22:08 5.9 3.4 84 270 1.1 2.2 1028.5 0.0000 0.1000
22:19 5.9 3.4 84 278 1.1 2.8 1028.4 0.0000 0.1000
22:29 5.9 3.4 84 292 1.1 3.3 1028.6 0.0000 0.1000
22:39 5.9 3.4 84 286 1.1 3.3 1028.6 0.0000 0.1000
22:49 5.9 3.4 84 292 1.1 2.5 1028.6 0.0000 0.1000
23:00 5.9 3.4 84 294 1.1 2.5 1028.6 0.0000 0.1000
23:10 5.8 3.3 84 297 1.1 3.3 1028.7 0.0000 0.1000
23:19 5.8 3.3 84 315 1.1 2.8 1028.9 0.0000 0.1000
23:30 5.7 3.2 84 317 1.1 2.8 1028.7 0.0000 0.1000
23:40 5.7 3.2 84 323 1.1 2.5 1028.8 0.0000 0.1000
23:50 5.6 3.1 84 315 1.1 3.3 1028.9 0.0000 0.1000

DAY STATISTIC

2018-12-10
TEMPERATURE
AVERAGE
6.4
HIGH
7.9
14:26
LOW
5.4
06:49
PRESSURE
AVERAGE
1027.7
HIGH
1029.2
11:00
LOW
1023.7
00:17
DEWPOINT
AVERAGE
3.9
HIGH
5.0
13:45
LOW
2.9
20:08
HUMIDITY
AVERAGE
84
HIGH
89
00:17
LOW
80
12:46
WIND SPEED
AVERAGE
1.0
HIGH
1.9
05:38
WIND GUST
AVERAGE
2.5
HIGH
4.4
05:38
WIND DIRECTION
PREVAILING
W
40.6%
N
0.0
NE
0.0
E
0.0
SE
0.0
S
8.3
SW
20.3
W
40.6
NW
30.8
PRECIPITATION
RAIN HOUR
0.1
RAIN DAY
0.1
TEMPERATURE (°C)
LOW
5.4
HIGH
7.9
AVERAGE
6.4
PRESSURE (hpa)
LOW
1023.7
HIGH
1029.2
AVERAGE
1027.7
DEVICE